Time;durP1;ratioP1;P1;durP2;ratioP2;P2;SDS_P1;SDS_P2;PMS_P1;PMS_P2;Temp;Humidity;BMP_temperature;BMP_pressure;BME280_temperature;BME280_humidity;BME280_pressure;Samples;Min_cycle;Max_cycle;Signal;HPM_P1;HPM_P2
2022/03/27 00:01:54;;;;;;;;;;;9.60;63.20;;;;;;2377489;56;20372;-82
2022/03/27 00:04:20;;;;;;;;;;;9.50;63.10;;;;;;2407275;52;20346;-81
2022/03/27 00:06:47;;;;;;;;;;;9.50;63.10;;;;;;2377412;56;20093;-81
2022/03/27 00:09:13;;;;;;;;;;;9.50;62.90;;;;;;2376844;56;20119;-81
2022/03/27 00:11:40;;;;;;;;;;;9.40;63.00;;;;;;2397270;52;20086;-79
2022/03/27 00:14:06;;;;;;;;;;;9.40;63.30;;;;;;2391331;52;20062;-80
2022/03/27 00:16:33;;;;;;;;;;;9.40;63.30;;;;;;2377487;52;20342;-82
2022/03/27 00:19:00;;;;;;;;;;;9.40;63.40;;;;;;2377371;52;20069;-80
2022/03/27 00:21:27;;;;;;;;;;;9.30;63.30;;;;;;2377455;56;20121;-80
2022/03/27 00:23:53;;;;;;;;;;;9.30;63.20;;;;;;2383597;52;20077;-81
2022/03/27 00:26:20;;;;;;;;;;;9.30;63.10;;;;;;2385063;52;20101;-81
2022/03/27 00:28:48;;;;;;;;;;;9.30;63.20;;;;;;2387194;52;20164;-79
2022/03/27 00:31:15;;;;;;;;;;;9.20;63.50;;;;;;2377300;56;20070;-80
2022/03/27 00:33:42;;;;;;;;;;;9.20;63.70;;;;;;2377191;54;20069;-82
2022/03/27 00:36:10;;;;;;;;;;;9.20;63.60;;;;;;2377156;56;20424;-81
2022/03/27 00:38:37;;;;;;;;;;;9.20;63.50;;;;;;2376958;56;20065;-80
2022/03/27 00:41:04;;;;;;;;;;;9.10;64.30;;;;;;2392549;52;20074;-79
2022/03/27 00:43:31;;;;;;;;;;;9.10;63.50;;;;;;2388805;52;20126;-80
2022/03/27 00:45:57;;;;;;;;;;;9.10;63.70;;;;;;2376903;56;20118;-80
2022/03/27 00:48:24;;;;;;;;;;;9.10;63.60;;;;;;2376726;56;20069;-81
2022/03/27 00:50:51;;;;;;;;;;;9.10;63.40;;;;;;2386135;52;20129;-80
2022/03/27 00:53:17;;;;;;;;;;;9.00;63.60;;;;;;2376631;56;20346;-80
2022/03/27 00:55:45;;;;;;;;;;;9.00;63.50;;;;;;2376548;52;20110;-79
2022/03/27 00:58:12;;;;;;;;;;;9.00;63.70;;;;;;2376596;53;20085;-82
2022/03/27 01:00:44;;;;;;;;;;;9.00;63.70;;;;;;2376028;52;20117;-80
2022/03/27 01:03:12;;;;;;;;;;;9.00;63.60;;;;;;2376351;56;20137;-80
2022/03/27 01:05:39;;;;;;;;;;;9.00;63.50;;;;;;2376073;55;20109;-81
2022/03/27 01:08:06;;;;;;;;;;;9.00;63.40;;;;;;2375175;56;20045;-81
2022/03/27 01:10:34;;;;;;;;;;;8.90;63.30;;;;;;2380318;52;20104;-81
2022/03/27 01:13:02;;;;;;;;;;;8.90;63.50;;;;;;2381046;52;20085;-82
2022/03/27 01:15:31;;;;;;;;;;;8.80;63.50;;;;;;2377500;56;20101;-80
2022/03/27 01:17:59;;;;;;;;;;;8.70;64.20;;;;;;2377148;56;20089;-81
2022/03/27 01:20:29;;;;;;;;;;;8.70;64.20;;;;;;2377201;56;20069;-81
2022/03/27 01:22:56;;;;;;;;;;;8.70;64.30;;;;;;2378475;52;20057;-81
2022/03/27 01:25:22;;;;;;;;;;;8.70;64.40;;;;;;2400332;52;20062;-80
2022/03/27 01:27:49;;;;;;;;;;;8.70;64.50;;;;;;2377278;56;20112;-80
2022/03/27 01:30:15;;;;;;;;;;;8.60;64.30;;;;;;2377076;54;20061;-82
2022/03/27 01:32:42;;;;;;;;;;;8.60;64.30;;;;;;2383068;52;20140;-81
2022/03/27 01:35:10;;;;;;;;;;;8.60;64.10;;;;;;2382314;52;20086;-80
2022/03/27 01:37:37;;;;;;;;;;;8.60;63.80;;;;;;2377638;54;20160;-80
2022/03/27 01:40:04;;;;;;;;;;;8.70;64.00;;;;;;2380584;52;20062;-79
2022/03/27 01:42:30;;;;;;;;;;;8.60;63.80;;;;;;2377433;56;20397;-80
2022/03/27 01:44:57;;;;;;;;;;;8.60;63.80;;;;;;2430976;52;20065;-80
2022/03/27 01:47:23;;;;;;;;;;;8.60;63.70;;;;;;2377278;56;20066;-80
2022/03/27 01:49:50;;;;;;;;;;;8.50;63.60;;;;;;2377097;56;20102;-80
2022/03/27 01:52:16;;;;;;;;;;;8.50;64.40;;;;;;2377449;56;20077;-79
2022/03/27 01:54:42;;;;;;;;;;;8.50;64.80;;;;;;2377495;56;20659;-82
2022/03/27 01:57:09;;;;;;;;;;;8.50;64.20;;;;;;2377101;56;20081;-81
2022/03/27 01:59:35;;;;;;;;;;;8.40;64.10;;;;;;2376806;56;20137;-81
2022/03/27 02:02:02;;;;;;;;;;;8.40;64.10;;;;;;2377585;56;20066;-80
2022/03/27 02:04:28;;;;;;;;;;;8.40;64.80;;;;;;2385054;52;20074;-80
2022/03/27 02:06:55;;;;;;;;;;;8.40;64.10;;;;;;2377755;56;20113;-80
2022/03/27 02:09:22;;;;;;;;;;;8.40;63.40;;;;;;2377244;52;20385;-81
2022/03/27 02:11:48;;;;;;;;;;;8.30;64.20;;;;;;2377032;56;20089;-81
2022/03/27 02:14:14;;;;;;;;;;;8.30;64.40;;;;;;2377191;56;20073;-81
2022/03/27 02:16:42;;;;;;;;;;;8.30;64.20;;;;;;2379827;52;20061;-80
2022/03/27 02:19:11;;;;;;;;;;;8.30;64.10;;;;;;2380313;52;20105;-81
2022/03/27 02:21:38;;;;;;;;;;;8.30;64.20;;;;;;2387817;52;20133;-81
2022/03/27 02:24:05;;;;;;;;;;;8.30;64.10;;;;;;2377213;56;20081;-82
2022/03/27 02:26:32;;;;;;;;;;;8.30;64.10;;;;;;2381758;52;20108;-81
2022/03/27 02:28:59;;;;;;;;;;;8.20;63.90;;;;;;2374664;56;20089;-82
2022/03/27 02:31:25;;;;;;;;;;;8.20;64.10;;;;;;2378424;52;20069;-81
2022/03/27 02:33:52;;;;;;;;;;;8.20;64.00;;;;;;2378728;52;20121;-80
2022/03/27 02:36:18;;;;;;;;;;;8.20;63.90;;;;;;2375579;52;20114;-79
2022/03/27 02:38:45;;;;;;;;;;;8.10;63.60;;;;;;2375122;56;20102;-79
2022/03/27 02:41:12;;;;;;;;;;;8.10;63.90;;;;;;2378951;52;20086;-80
2022/03/27 02:43:38;;;;;;;;;;;8.10;63.90;;;;;;2375796;52;20085;-81
2022/03/27 02:46:05;;;;;;;;;;;8.00;64.00;;;;;;2375084;56;20074;-79
2022/03/27 02:48:32;;;;;;;;;;;8.00;64.20;;;;;;2377658;52;20069;-79
2022/03/27 02:50:59;;;;;;;;;;;8.10;64.30;;;;;;2375997;52;20152;-80
2022/03/27 02:53:25;;;;;;;;;;;8.00;64.20;;;;;;2375506;56;20086;-79
2022/03/27 02:55:52;;;;;;;;;;;8.00;64.00;;;;;;2375470;56;20074;-79
2022/03/27 02:58:19;;;;;;;;;;;8.00;63.90;;;;;;2375607;56;20365;-81
2022/03/27 03:00:45;;;;;;;;;;;8.00;63.90;;;;;;2376691;56;20141;-80
2022/03/27 03:03:13;;;;;;;;;;;8.00;64.00;;;;;;2377192;54;20073;-80
2022/03/27 03:05:41;;;;;;;;;;;8.00;64.00;;;;;;2377387;56;20053;-80
2022/03/27 03:08:11;;;;;;;;;;;7.90;64.00;;;;;;2377684;56;20085;-82
2022/03/27 03:10:38;;;;;;;;;;;7.90;63.90;;;;;;2393203;52;20200;-80
2022/03/27 03:13:05;;;;;;;;;;;7.90;63.80;;;;;;2377536;52;20121;-81
2022/03/27 03:15:32;;;;;;;;;;;7.90;63.70;;;;;;2375684;56;20069;-81
2022/03/27 03:17:58;;;;;;;;;;;7.90;63.80;;;;;;2379604;52;20077;-81
2022/03/27 03:20:26;;;;;;;;;;;7.90;64.00;;;;;;2374463;56;20061;-79
2022/03/27 03:22:53;;;;;;;;;;;7.90;64.00;;;;;;2380611;52;20090;-81
2022/03/27 03:25:19;;;;;;;;;;;7.90;63.90;;;;;;2375141;56;20117;-81
2022/03/27 03:27:46;;;;;;;;;;;7.80;63.80;;;;;;2375358;56;20164;-81
2022/03/27 03:30:12;;;;;;;;;;;7.70;63.80;;;;;;2388606;52;20073;-80
2022/03/27 03:32:39;;;;;;;;;;;7.80;64.20;;;;;;2375580;53;20065;-81
2022/03/27 03:35:06;;;;;;;;;;;7.80;64.00;;;;;;2375265;56;20121;-80
2022/03/27 03:37:32;;;;;;;;;;;7.80;64.00;;;;;;2377205;52;20310;-80
2022/03/27 03:39:59;;;;;;;;;;;7.70;63.90;;;;;;2379811;52;20185;-79
2022/03/27 03:42:26;;;;;;;;;;;7.70;63.80;;;;;;2401083;52;20081;-81
2022/03/27 03:44:52;;;;;;;;;;;7.70;63.90;;;;;;2375308;56;20358;-79
2022/03/27 03:47:19;;;;;;;;;;;7.60;63.80;;;;;;2375370;56;20472;-79
2022/03/27 03:49:46;;;;;;;;;;;7.60;64.10;;;;;;2375268;56;20334;-81
2022/03/27 03:52:12;;;;;;;;;;;7.70;64.40;;;;;;2380797;52;20137;-80
2022/03/27 03:54:39;;;;;;;;;;;7.60;64.20;;;;;;2375211;56;20180;-79
2022/03/27 03:57:05;;;;;;;;;;;7.60;64.30;;;;;;2374906;56;20113;-80
2022/03/27 03:59:33;;;;;;;;;;;7.50;64.20;;;;;;2374661;56;20077;-79
2022/03/27 04:02:00;;;;;;;;;;;7.60;64.50;;;;;;2392144;52;20401;-81
2022/03/27 04:04:27;;;;;;;;;;;7.50;64.40;;;;;;2375250;56;20157;-81
2022/03/27 04:06:53;;;;;;;;;;;7.50;64.40;;;;;;2375479;56;20073;-80
2022/03/27 04:09:20;;;;;;;;;;;7.40;64.60;;;;;;2374342;56;20113;-79
2022/03/27 04:11:47;;;;;;;;;;;7.40;65.60;;;;;;2375191;56;20110;-79
2022/03/27 04:14:14;;;;;;;;;;;7.40;64.90;;;;;;2382727;52;20154;-81
2022/03/27 04:16:40;;;;;;;;;;;7.40;65.00;;;;;;2377166;56;20081;-81
2022/03/27 04:19:06;;;;;;;;;;;7.40;65.60;;;;;;2376981;56;20102;-81
2022/03/27 04:21:33;;;;;;;;;;;7.40;64.80;;;;;;2381324;52;20057;-79
2022/03/27 04:23:59;;;;;;;;;;;7.40;64.60;;;;;;2377290;56;20168;-80
2022/03/27 04:26:26;;;;;;;;;;;7.40;64.70;;;;;;2376852;56;20061;-83
2022/03/27 04:28:52;;;;;;;;;;;7.30;64.50;;;;;;2401106;52;20414;-81
2022/03/27 04:31:19;;;;;;;;;;;7.30;64.40;;;;;;2528216;52;20115;-78
2022/03/27 04:33:45;;;;;;;;;;;7.30;64.50;;;;;;2572676;53;20082;-78
2022/03/27 04:36:12;;;;;;;;;;;7.30;64.70;;;;;;2572802;53;20111;-77
2022/03/27 04:38:39;;;;;;;;;;;7.20;64.90;;;;;;2329393;58;20499;-78
2022/03/27 04:41:05;;;;;;;;;;;7.30;64.80;;;;;;2329553;58;20039;-81
2022/03/27 04:43:32;;;;;;;;;;;7.20;64.80;;;;;;2571095;54;20131;-77
2022/03/27 04:45:59;;;;;;;;;;;7.20;64.90;;;;;;2328274;58;20095;-79
2022/03/27 04:48:25;;;;;;;;;;;7.20;64.80;;;;;;2328269;58;20079;-78
2022/03/27 04:50:53;;;;;;;;;;;7.20;64.60;;;;;;2327821;58;20119;-78
2022/03/27 04:53:20;;;;;;;;;;;7.20;64.60;;;;;;2571131;53;20075;-79
2022/03/27 04:55:46;;;;;;;;;;;7.20;64.50;;;;;;2570793;54;20063;-77
2022/03/27 04:58:13;;;;;;;;;;;7.20;64.40;;;;;;2328098;58;20094;-77
2022/03/27 05:00:39;;;;;;;;;;;7.10;64.20;;;;;;2327851;58;20054;-77
2022/03/27 05:03:06;;;;;;;;;;;7.10;64.30;;;;;;2328241;58;20112;-77
2022/03/27 05:05:32;;;;;;;;;;;7.10;64.40;;;;;;2570931;53;20462;-79
2022/03/27 05:08:00;;;;;;;;;;;7.10;64.40;;;;;;2570992;53;20119;-79
2022/03/27 05:10:26;;;;;;;;;;;7.10;64.30;;;;;;2328033;58;20071;-79
2022/03/27 05:12:53;;;;;;;;;;;7.10;64.40;;;;;;2570894;54;20347;-78
2022/03/27 05:15:19;;;;;;;;;;;7.10;64.30;;;;;;2327826;58;20238;-79
2022/03/27 05:17:47;;;;;;;;;;;7.00;64.30;;;;;;2328259;58;20079;-78
2022/03/27 05:20:13;;;;;;;;;;;7.10;64.40;;;;;;2327961;58;20095;-79
2022/03/27 05:22:40;;;;;;;;;;;7.00;64.50;;;;;;2328413;58;20086;-78
2022/03/27 05:25:07;;;;;;;;;;;7.00;64.50;;;;;;2328238;58;20127;-77
2022/03/27 05:27:34;;;;;;;;;;;7.00;64.50;;;;;;2570851;54;20078;-78
2022/03/27 05:30:00;;;;;;;;;;;7.00;64.50;;;;;;2327811;58;20138;-77
2022/03/27 05:32:27;;;;;;;;;;;7.00;64.50;;;;;;2328014;58;20063;-76
2022/03/27 05:34:53;;;;;;;;;;;7.00;64.50;;;;;;2328435;58;20071;-77
2022/03/27 05:37:19;;;;;;;;;;;7.10;64.40;;;;;;2328348;58;20123;-77
2022/03/27 05:39:46;;;;;;;;;;;7.10;64.40;;;;;;2327702;58;20079;-76
2022/03/27 05:42:12;;;;;;;;;;;7.10;64.50;;;;;;2328037;58;20146;-77
2022/03/27 05:44:39;;;;;;;;;;;7.10;64.60;;;;;;2328313;58;20071;-77
2022/03/27 05:47:06;;;;;;;;;;;7.10;64.60;;;;;;2570388;54;20082;-78
2022/03/27 05:49:32;;;;;;;;;;;7.10;64.60;;;;;;2570553;54;20059;-77
2022/03/27 05:51:59;;;;;;;;;;;7.10;64.90;;;;;;2570729;53;20146;-79
2022/03/27 05:54:26;;;;;;;;;;;7.10;65.10;;;;;;2328056;58;20111;-79
2022/03/27 05:56:52;;;;;;;;;;;7.20;65.20;;;;;;2328088;58;20134;-77
2022/03/27 05:59:19;;;;;;;;;;;7.20;65.20;;;;;;2570628;54;20062;-76
2022/03/27 06:01:45;;;;;;;;;;;7.20;65.20;;;;;;2328100;58;20063;-77
2022/03/27 06:04:12;;;;;;;;;;;7.20;65.40;;;;;;2328042;58;20447;-78
2022/03/27 06:06:38;;;;;;;;;;;7.20;65.60;;;;;;2328224;58;20083;-77
2022/03/27 06:09:05;;;;;;;;;;;7.30;66.50;;;;;;2570433;53;20067;-77
2022/03/27 06:11:31;;;;;;;;;;;7.30;65.80;;;;;;2328409;58;20122;-77
2022/03/27 06:13:58;;;;;;;;;;;7.30;66.00;;;;;;2328243;58;20116;-77
2022/03/27 06:16:24;;;;;;;;;;;7.40;66.30;;;;;;2328193;58;20067;-77
2022/03/27 06:18:51;;;;;;;;;;;7.40;66.20;;;;;;2327589;58;20150;-79
2022/03/27 06:21:17;;;;;;;;;;;7.40;66.20;;;;;;2328109;58;20170;-77
2022/03/27 06:23:43;;;;;;;;;;;7.50;66.20;;;;;;2328080;58;20143;-77
2022/03/27 06:26:10;;;;;;;;;;;7.50;66.30;;;;;;2328219;58;20150;-77
2022/03/27 06:28:37;;;;;;;;;;;7.50;66.60;;;;;;2328368;58;20075;-77
2022/03/27 06:31:04;;;;;;;;;;;7.60;66.70;;;;;;2570065;53;20059;-76
2022/03/27 06:33:30;;;;;;;;;;;7.60;66.60;;;;;;2570786;54;20142;-77
2022/03/27 06:35:56;;;;;;;;;;;7.60;66.80;;;;;;2327661;58;20087;-77
2022/03/27 06:38:23;;;;;;;;;;;7.60;66.80;;;;;;2327908;58;20291;-76
2022/03/27 06:40:49;;;;;;;;;;;7.60;66.90;;;;;;2327757;58;20067;-78
2022/03/27 06:43:16;;;;;;;;;;;7.60;66.80;;;;;;2328330;58;20091;-79
2022/03/27 06:45:42;;;;;;;;;;;7.70;66.70;;;;;;2571047;54;20131;-80
2022/03/27 06:48:09;;;;;;;;;;;7.80;66.70;;;;;;2328955;58;20307;-79
2022/03/27 06:50:35;;;;;;;;;;;7.80;66.30;;;;;;2328546;58;20083;-76
2022/03/27 06:53:02;;;;;;;;;;;7.90;67.00;;;;;;2328537;58;20102;-79
2022/03/27 06:55:29;;;;;;;;;;;7.90;66.60;;;;;;2328765;58;20114;-79
2022/03/27 06:57:55;;;;;;;;;;;8.00;66.50;;;;;;2328099;58;20063;-81
2022/03/27 07:03:06;;;;;;;;;;;8.00;66.40;;;;;;2327999;58;20131;-78
2022/03/27 07:05:35;;;;;;;;;;;8.00;66.10;;;;;;2570894;54;20055;-79
2022/03/27 07:08:03;;;;;;;;;;;8.10;65.70;;;;;;2570657;54;20071;-79
2022/03/27 07:10:30;;;;;;;;;;;8.10;65.90;;;;;;2327371;58;20312;-79
2022/03/27 07:12:56;;;;;;;;;;;8.10;66.10;;;;;;2328281;58;20083;-80
2022/03/27 07:15:24;;;;;;;;;;;8.20;66.80;;;;;;2328145;58;20316;-79
2022/03/27 07:17:51;;;;;;;;;;;8.20;66.90;;;;;;2328127;58;20075;-79
2022/03/27 07:20:19;;;;;;;;;;;8.20;67.30;;;;;;2570023;53;20079;-79
2022/03/27 07:22:45;;;;;;;;;;;8.20;67.60;;;;;;2570631;54;20122;-78
2022/03/27 07:25:12;;;;;;;;;;;8.30;67.40;;;;;;2328160;58;20307;-77
2022/03/27 07:27:39;;;;;;;;;;;8.30;67.30;;;;;;2570305;53;20064;-79
2022/03/27 07:30:07;;;;;;;;;;;8.40;67.40;;;;;;2570361;54;20127;-79
2022/03/27 07:32:33;;;;;;;;;;;8.40;67.10;;;;;;2570382;54;20279;-80
2022/03/27 07:35:00;;;;;;;;;;;8.50;67.20;;;;;;2326744;58;20075;-80
2022/03/27 07:37:27;;;;;;;;;;;8.50;67.20;;;;;;2569823;53;20138;-80
2022/03/27 07:39:54;;;;;;;;;;;8.60;67.90;;;;;;2327536;58;20083;-78
2022/03/27 07:42:21;;;;;;;;;;;8.60;67.80;;;;;;2327756;58;20079;-79
2022/03/27 07:44:48;;;;;;;;;;;8.70;67.90;;;;;;2328164;58;20126;-81
2022/03/27 07:47:15;;;;;;;;;;;8.80;67.30;;;;;;2570659;54;20174;-80
2022/03/27 07:49:42;;;;;;;;;;;8.90;66.30;;;;;;2327733;58;20130;-80
2022/03/27 07:52:08;;;;;;;;;;;8.90;66.90;;;;;;2329048;58;20063;-81
2022/03/27 07:54:34;;;;;;;;;;;9.00;65.30;;;;;;2329158;58;20138;-80
2022/03/27 07:57:01;;;;;;;;;;;9.00;66.30;;;;;;2571533;54;20087;-80
2022/03/27 07:59:27;;;;;;;;;;;9.10;67.60;;;;;;2328431;58;20159;-80
2022/03/27 08:01:54;;;;;;;;;;;9.10;66.60;;;;;;2329175;58;20071;-80
2022/03/27 08:04:21;;;;;;;;;;;9.20;66.60;;;;;;2328552;58;20319;-79
2022/03/27 08:06:47;;;;;;;;;;;9.20;66.60;;;;;;2572149;54;20066;-80
2022/03/27 08:09:13;;;;;;;;;;;9.30;66.60;;;;;;2328480;58;20166;-80
2022/03/27 08:11:42;;;;;;;;;;;9.30;66.20;;;;;;2329040;58;20087;-81
2022/03/27 08:14:11;;;;;;;;;;;9.30;65.60;;;;;;2328759;58;20167;-80
2022/03/27 08:16:38;;;;;;;;;;;9.40;65.90;;;;;;2329108;58;20055;-78
2022/03/27 08:19:04;;;;;;;;;;;9.40;67.00;;;;;;2328722;58;20123;-80
2022/03/27 08:21:31;;;;;;;;;;;9.40;66.70;;;;;;2329050;58;20090;-80
2022/03/27 08:23:57;;;;;;;;;;;9.50;67.20;;;;;;2329108;58;20094;-80
2022/03/27 08:29:10;;;;;;;;;;;9.60;65.00;;;;;;2549433;54;20075;-80
2022/03/27 08:31:36;;;;;;;;;;;9.60;64.90;;;;;;2571992;54;20063;-80
2022/03/27 08:34:03;;;;;;;;;;;9.60;64.30;;;;;;2329121;58;20067;-79
2022/03/27 08:36:30;;;;;;;;;;;9.70;64.90;;;;;;2329345;58;20303;-80
2022/03/27 08:38:56;;;;;;;;;;;9.70;66.40;;;;;;2571017;53;20110;-80
2022/03/27 08:41:24;;;;;;;;;;;9.70;65.80;;;;;;2329380;58;20296;-80
2022/03/27 08:43:58;;;;;;;;;;;9.70;66.50;;;;;;2571552;53;20078;-79
2022/03/27 08:46:26;;;;;;;;;;;9.80;68.70;;;;;;2572583;54;20070;-78
2022/03/27 08:48:53;;;;;;;;;;;9.80;68.70;;;;;;2329660;58;20116;-78
2022/03/27 08:51:27;;;;;;;;;;;9.80;68.00;;;;;;2572200;53;20063;-79
2022/03/27 08:53:58;;;;;;;;;;;9.90;67.70;;;;;;2571918;53;20063;-79
2022/03/27 08:56:25;;;;;;;;;;;9.90;68.30;;;;;;2329438;58;20315;-80
2022/03/27 08:58:53;;;;;;;;;;;9.90;67.70;;;;;;2328257;58;20182;-79
2022/03/27 09:01:20;;;;;;;;;;;10.00;68.50;;;;;;2328631;58;20224;-80
2022/03/27 09:03:47;;;;;;;;;;;10.00;68.20;;;;;;2328790;58;20051;-80
2022/03/27 09:06:13;;;;;;;;;;;10.00;67.50;;;;;;2329098;58;20876;-81
2022/03/27 09:08:40;;;;;;;;;;;10.10;68.80;;;;;;2571786;54;20466;-82
2022/03/27 09:11:07;;;;;;;;;;;10.10;68.70;;;;;;2329107;58;20307;-78
2022/03/27 09:13:33;;;;;;;;;;;10.20;66.70;;;;;;2572011;53;20123;-81
2022/03/27 09:16:01;;;;;;;;;;;10.20;67.30;;;;;;2571456;54;20328;-80
2022/03/27 09:18:41;;;;;;;;;;;10.30;67.30;;;;;;2329084;58;20138;-81
2022/03/27 09:21:07;;;;;;;;;;;10.20;67.20;;;;;;2329063;58;20059;-78
2022/03/27 09:23:35;;;;;;;;;;;10.30;69.50;;;;;;2329154;58;20781;-80
2022/03/27 09:26:03;;;;;;;;;;;10.30;69.00;;;;;;2329383;58;20070;-79
2022/03/27 09:28:30;;;;;;;;;;;10.40;68.40;;;;;;2329101;58;20315;-80
2022/03/27 09:30:58;;;;;;;;;;;10.50;71.00;;;;;;2328142;58;20067;-80
2022/03/27 09:33:46;;;;;;;;;;;10.50;70.30;;;;;;2328870;58;20359;-81
2022/03/27 09:36:14;;;;;;;;;;;10.50;69.60;;;;;;2571955;53;20051;-80
2022/03/27 09:38:41;;;;;;;;;;;10.60;69.90;;;;;;2328769;58;20071;-80
2022/03/27 09:41:28;;;;;;;;;;;10.60;70.60;;;;;;2571391;54;20083;-81
2022/03/27 09:43:58;;;;;;;;;;;10.70;70.10;;;;;;2571788;53;20129;-79
2022/03/27 09:46:26;;;;;;;;;;;10.80;68.60;;;;;;2329190;58;20070;-79
2022/03/27 09:48:56;;;;;;;;;;;10.90;67.30;;;;;;2570875;54;20127;-80
2022/03/27 09:51:22;;;;;;;;;;;10.90;67.70;;;;;;2571561;53;20063;-80
2022/03/27 09:53:55;;;;;;;;;;;11.00;70.00;;;;;;2571984;54;20059;-80
2022/03/27 09:56:28;;;;;;;;;;;11.10;70.90;;;;;;2329125;58;20315;-80
2022/03/27 09:58:55;;;;;;;;;;;11.20;69.60;;;;;;2571529;53;20130;-80
2022/03/27 10:01:22;;;;;;;;;;;11.20;68.60;;;;;;2571554;54;20075;-80
2022/03/27 10:03:59;;;;;;;;;;;11.30;66.40;;;;;;2328871;58;20130;-80
2022/03/27 10:06:30;;;;;;;;;;;11.30;67.90;;;;;;2328866;58;20094;-79
2022/03/27 10:08:56;;;;;;;;;;;11.40;68.20;;;;;;2571851;54;20111;-78
2022/03/27 10:11:24;;;;;;;;;;;11.40;67.50;;;;;;2328622;58;20071;-78
2022/03/27 10:13:52;;;;;;;;;;;11.50;66.10;;;;;;2328797;58;20083;-78
2022/03/27 10:16:22;;;;;;;;;;;11.60;67.40;;;;;;2571426;53;20110;-79
2022/03/27 10:18:49;;;;;;;;;;;11.70;68.60;;;;;;2328183;58;20138;-79
2022/03/27 10:21:16;;;;;;;;;;;11.80;68.80;;;;;;2328134;58;20070;-79
2022/03/27 10:23:44;;;;;;;;;;;11.80;68.20;;;;;;2328498;58;20134;-78
2022/03/27 10:26:10;;;;;;;;;;;11.90;67.30;;;;;;2328164;58;20079;-79
2022/03/27 10:28:37;;;;;;;;;;;12.00;66.50;;;;;;2328317;58;20138;-79
2022/03/27 10:31:04;;;;;;;;;;;12.10;67.20;;;;;;2417714;53;20333;-81
2022/03/27 10:33:30;;;;;;;;;;;12.20;67.40;;;;;;2544791;54;20457;-83
2022/03/27 10:36:00;;;;;;;;;;;12.30;67.40;;;;;;2307916;58;20143;-83
2022/03/27 10:38:38;;;;;;;;;;;12.30;67.60;;;;;;2545634;54;20084;-81
2022/03/27 10:41:08;;;;;;;;;;;12.50;67.70;;;;;;2559623;54;20071;-81
2022/03/27 10:43:40;;;;;;;;;;;12.50;68.00;;;;;;2334524;57;20151;-81
2022/03/27 10:46:18;;;;;;;;;;;12.70;67.90;;;;;;2334958;57;20165;-81
2022/03/27 10:48:47;;;;;;;;;;;12.80;66.80;;;;;;2333854;57;20344;-80
2022/03/27 10:51:32;;;;;;;;;;;12.90;65.70;;;;;;2577629;53;20148;-82
2022/03/27 10:54:02;;;;;;;;;;;13.00;65.00;;;;;;2334301;57;20095;-81
2022/03/27 10:56:34;;;;;;;;;;;13.10;64.50;;;;;;2577525;53;20118;-81
2022/03/27 10:59:07;;;;;;;;;;;13.10;64.20;;;;;;2577883;53;20082;-82
2022/03/27 11:01:38;;;;;;;;;;;13.20;65.50;;;;;;2334045;57;20079;-80
2022/03/27 11:04:05;;;;;;;;;;;13.30;65.20;;;;;;2577510;53;20139;-79
2022/03/27 11:06:32;;;;;;;;;;;13.40;65.30;;;;;;2578097;53;20112;-82
2022/03/27 11:09:00;;;;;;;;;;;13.50;64.50;;;;;;2577283;53;20094;-82
2022/03/27 11:11:44;;;;;;;;;;;13.60;64.00;;;;;;2334329;57;20320;-80
2022/03/27 11:14:21;;;;;;;;;;;13.70;64.80;;;;;;2577808;54;20059;-82
2022/03/27 11:17:10;;;;;;;;;;;13.80;63.80;;;;;;2334766;57;20083;-82
2022/03/27 11:19:41;;;;;;;;;;;13.90;62.80;;;;;;2578230;53;20091;-81
2022/03/27 11:22:40;;;;;;;;;;;14.00;62.30;;;;;;2334119;57;20138;-84
2022/03/27 11:25:25;;;;;;;;;;;14.10;61.30;;;;;;2578495;53;20059;-81
2022/03/27 11:28:05;;;;;;;;;;;14.20;60.30;;;;;;2578652;54;20075;-83
2022/03/27 11:30:32;;;;;;;;;;;14.20;60.80;;;;;;2578242;54;20110;-83
2022/03/27 11:33:12;;;;;;;;;;;14.40;61.70;;;;;;2334117;57;20123;-82
2022/03/27 11:35:38;;;;;;;;;;;14.50;60.40;;;;;;2334091;57;20110;-81
2022/03/27 11:38:21;;;;;;;;;;;14.50;60.10;;;;;;2334570;57;20122;-83
2022/03/27 11:40:48;;;;;;;;;;;14.60;59.50;;;;;;2334203;57;20119;-82
2022/03/27 11:43:30;;;;;;;;;;;14.70;59.60;;;;;;2334837;57;20071;-82
2022/03/27 11:45:57;;;;;;;;;;;14.80;60.30;;;;;;2578608;53;20071;-83
2022/03/27 11:48:24;;;;;;;;;;;14.90;59.80;;;;;;2578524;53;20114;-83
2022/03/27 11:50:50;;;;;;;;;;;15.00;59.10;;;;;;2333583;57;20058;-82
2022/03/27 11:53:17;;;;;;;;;;;15.10;59.20;;;;;;2578205;53;20082;-80
2022/03/27 11:55:43;;;;;;;;;;;15.10;58.00;;;;;;2334393;57;20059;-83
2022/03/27 11:58:18;;;;;;;;;;;15.20;58.40;;;;;;2578545;53;20083;-80
2022/03/27 12:00:45;;;;;;;;;;;15.30;58.20;;;;;;2332686;57;20332;-80
2022/03/27 12:03:17;;;;;;;;;;;15.30;58.10;;;;;;2333059;57;20189;-80
2022/03/27 12:05:44;;;;;;;;;;;15.40;58.40;;;;;;2577242;53;20119;-82
2022/03/27 12:08:13;;;;;;;;;;;15.40;57.90;;;;;;2578279;53;20825;-81
2022/03/27 12:10:41;;;;;;;;;;;15.50;57.80;;;;;;2333820;57;20111;-81
2022/03/27 12:13:08;;;;;;;;;;;15.60;57.80;;;;;;2578453;53;20072;-82
2022/03/27 12:15:39;;;;;;;;;;;15.70;58.10;;;;;;2578002;53;20083;-80
2022/03/27 12:18:06;;;;;;;;;;;15.70;57.60;;;;;;2333864;57;20075;-81
2022/03/27 12:20:40;;;;;;;;;;;15.80;57.70;;;;;;2329546;57;20083;-81
2022/03/27 12:23:17;;;;;;;;;;;15.90;57.50;;;;;;2573573;53;20063;-82
2022/03/27 12:25:43;;;;;;;;;;;15.90;57.50;;;;;;2576003;53;20111;-80
2022/03/27 12:30:54;;;;;;;;;;;16.00;56.70;;;;;;2333001;57;20339;-81
2022/03/27 12:33:21;;;;;;;;;;;16.00;56.80;;;;;;2576793;53;20103;-81
2022/03/27 12:36:02;;;;;;;;;;;16.00;56.80;;;;;;2333326;57;20124;-80
2022/03/27 12:38:32;;;;;;;;;;;16.10;56.60;;;;;;2332989;57;20411;-83
2022/03/27 12:40:58;;;;;;;;;;;16.10;57.20;;;;;;2576647;54;20412;-82
2022/03/27 12:43:25;;;;;;;;;;;16.10;56.90;;;;;;2576794;53;20071;-77
2022/03/27 12:45:51;;;;;;;;;;;16.10;57.00;;;;;;2331521;57;20082;-81
2022/03/27 12:48:18;;;;;;;;;;;16.10;56.70;;;;;;2331593;57;20099;-79
2022/03/27 12:50:46;;;;;;;;;;;16.20;57.20;;;;;;2332145;57;20078;-81
2022/03/27 12:53:13;;;;;;;;;;;16.20;57.00;;;;;;2332763;57;20087;-81
2022/03/27 12:55:41;;;;;;;;;;;16.30;57.00;;;;;;2575295;53;20166;-79
2022/03/27 12:58:07;;;;;;;;;;;16.30;57.10;;;;;;2332204;57;20351;-82
2022/03/27 13:00:35;;;;;;;;;;;16.40;56.80;;;;;;2333233;57;20100;-79
2022/03/27 13:03:15;;;;;;;;;;;16.40;56.60;;;;;;2576012;53;20058;-78
2022/03/27 13:05:42;;;;;;;;;;;16.50;56.30;;;;;;2576356;53;20114;-80
2022/03/27 13:08:09;;;;;;;;;;;16.50;56.90;;;;;;2332518;57;20059;-79
2022/03/27 13:10:37;;;;;;;;;;;16.60;56.70;;;;;;2332663;57;20363;-79
2022/03/27 13:13:05;;;;;;;;;;;16.60;56.40;;;;;;2333063;57;20067;-79
2022/03/27 13:15:38;;;;;;;;;;;16.60;56.10;;;;;;2576387;53;20106;-79
2022/03/27 13:18:06;;;;;;;;;;;16.70;56.40;;;;;;2332297;57;20332;-80
2022/03/27 13:20:34;;;;;;;;;;;16.70;56.30;;;;;;2375344;52;67417;-76
2022/03/27 13:23:01;;;;;;;;;;;16.80;56.30;;;;;;2570488;53;20374;-77
2022/03/27 13:25:27;;;;;;;;;;;16.80;56.00;;;;;;2327115;58;20183;-75
2022/03/27 13:27:55;;;;;;;;;;;16.80;55.90;;;;;;2569480;54;20070;-76
2022/03/27 13:30:21;;;;;;;;;;;16.80;55.70;;;;;;2325538;58;20086;-76
2022/03/27 13:32:48;;;;;;;;;;;16.90;56.50;;;;;;2569720;54;20075;-76
2022/03/27 13:35:14;;;;;;;;;;;16.90;55.80;;;;;;2568774;54;20127;-76
2022/03/27 13:37:41;;;;;;;;;;;16.90;55.70;;;;;;2326832;58;20122;-76
2022/03/27 13:40:09;;;;;;;;;;;16.90;55.80;;;;;;2326628;58;20210;-77
2022/03/27 13:45:20;;;;;;;;;;;16.90;55.70;;;;;;2326830;58;20087;-78
2022/03/27 13:47:47;;;;;;;;;;;17.00;55.80;;;;;;2572418;54;20111;-79
2022/03/27 13:50:14;;;;;;;;;;;17.00;56.00;;;;;;2573893;53;20146;-78
2022/03/27 13:52:40;;;;;;;;;;;17.00;55.90;;;;;;2328037;58;20098;-76
2022/03/27 13:55:08;;;;;;;;;;;17.10;55.90;;;;;;2569696;53;20090;-76
2022/03/27 13:57:35;;;;;;;;;;;17.10;56.20;;;;;;2569817;54;20414;-75
2022/03/27 14:00:01;;;;;;;;;;;17.10;56.50;;;;;;2569509;54;20075;-76
2022/03/27 14:02:28;;;;;;;;;;;17.10;55.80;;;;;;2325876;58;20142;-77
2022/03/27 14:04:57;;;;;;;;;;;17.10;55.40;;;;;;2327022;58;20087;-74
2022/03/27 14:07:23;;;;;;;;;;;17.20;55.30;;;;;;2327531;58;20067;-74
2022/03/27 14:09:50;;;;;;;;;;;17.20;54.70;;;;;;2326664;58;20127;-75
2022/03/27 14:12:16;;;;;;;;;;;17.20;54.70;;;;;;2327592;58;20079;-75
2022/03/27 14:14:43;;;;;;;;;;;17.20;54.50;;;;;;2326429;58;20336;-74
2022/03/27 14:17:09;;;;;;;;;;;17.30;54.60;;;;;;2327439;58;20066;-75
2022/03/27 14:19:37;;;;;;;;;;;17.30;54.30;;;;;;2568977;54;20148;-74
2022/03/27 14:22:05;;;;;;;;;;;17.30;54.30;;;;;;2325174;58;20071;-74
2022/03/27 14:24:31;;;;;;;;;;;17.30;54.40;;;;;;2569573;53;20075;-74
2022/03/27 14:26:58;;;;;;;;;;;17.30;54.20;;;;;;2326273;58;20150;-76
2022/03/27 14:29:24;;;;;;;;;;;17.30;53.00;;;;;;2324860;58;20227;-75
2022/03/27 14:31:52;;;;;;;;;;;17.30;53.80;;;;;;2325369;58;20095;-74
2022/03/27 14:34:18;;;;;;;;;;;17.30;53.10;;;;;;2326313;58;20110;-75
2022/03/27 14:36:45;;;;;;;;;;;17.30;53.00;;;;;;2324918;58;20086;-75
2022/03/27 14:39:12;;;;;;;;;;;17.30;53.40;;;;;;2324670;58;20318;-74
2022/03/27 14:41:39;;;;;;;;;;;17.30;54.10;;;;;;2326174;58;20071;-75